Time;durP1;ratioP1;P1;durP2;ratioP2;P2;SDS_P1;SDS_P2;PMS_P1;PMS_P2;Temp;Humidity;BMP_temperature;BMP_pressure;BME280_temperature;BME280_humidity;BME280_pressure;Samples;Min_cycle;Max_cycle;Signal;HPM_P1;HPM_P2
2023/07/15 00:01:29;;;;;;;8.30;3.73;;;;;;;19.90;100.00;99655.66;5057532;28;20697;-74
2023/07/15 00:03:55;;;;;;;4.87;3.20;;;;;;;19.89;100.00;99657.44;5056733;28;20206;-75
2023/07/15 00:06:21;;;;;;;4.83;3.37;;;;;;;19.89;100.00;99656.63;5053777;28;20201;-75
2023/07/15 00:08:47;;;;;;;7.67;3.63;;;;;;;19.86;100.00;99656.75;5061167;28;20577;-73
2023/07/15 00:11:33;;;;;;;9.93;4.07;;;;;;;19.83;100.00;99662.19;5057609;28;20186;-74
2023/07/15 00:14:01;;;;;;;8.07;3.47;;;;;;;19.78;100.00;99652.78;5057106;28;20206;-75
2023/07/15 00:16:30;;;;;;;4.27;3.17;;;;;;;19.77;100.00;99652.88;5057779;28;20190;-74
2023/07/15 00:18:56;;;;;;;5.40;2.80;;;;;;;19.78;100.00;99654.56;5058966;28;20302;-76
2023/07/15 00:21:24;;;;;;;3.77;3.30;;;;;;;19.78;100.00;99662.44;5059076;28;20283;-75
2023/07/15 00:23:55;;;;;;;3.83;2.90;;;;;;;19.78;100.00;99665.06;5055696;28;20213;-74
2023/07/15 00:26:24;;;;;;;3.50;3.20;;;;;;;19.76;100.00;99661.69;5054826;28;20184;-74
2023/07/15 00:28:50;;;;;;;3.33;3.03;;;;;;;19.74;100.00;99660.94;5056907;28;20261;-74
2023/07/15 00:31:17;;;;;;;3.60;3.30;;;;;;;19.73;100.00;99649.59;5054623;28;20303;-75
2023/07/15 00:33:44;;;;;;;5.40;3.10;;;;;;;19.71;100.00;99656.72;5055731;28;21008;-74
2023/07/15 00:36:13;;;;;;;2.90;2.70;;;;;;;19.69;100.00;99658.56;5056554;28;20240;-74
2023/07/15 00:38:43;;;;;;;3.33;3.03;;;;;;;19.68;100.00;99649.00;5053973;28;20181;-76
2023/07/15 00:41:19;;;;;;;3.20;2.90;;;;;;;19.70;100.00;99654.16;5054099;28;20657;-75
2023/07/15 00:46:18;;;;;;;2.63;2.50;;;;;;;19.65;100.00;99649.16;5059414;28;20201;-75
2023/07/15 00:49:17;;;;;;;3.30;2.90;;;;;;;19.62;100.00;99644.09;5059581;28;20221;-73
2023/07/15 00:52:11;;;;;;;6.93;3.13;;;;;;;19.54;100.00;99649.78;5056903;28;20200;-74
2023/07/15 00:54:40;;;;;;;4.50;3.57;;;;;;;19.45;100.00;99640.63;5055086;28;20258;-75
2023/07/15 00:57:07;;;;;;;3.97;2.97;;;;;;;19.40;100.00;99647.94;5061710;28;20204;-75
2023/07/15 00:59:33;;;;;;;3.73;3.17;;;;;;;19.37;100.00;99635.00;5060288;28;20212;-75
2023/07/15 01:01:59;;;;;;;2.73;2.53;;;;;;;19.38;100.00;99647.19;5058626;28;20336;-75
2023/07/15 01:04:26;;;;;;;3.03;2.73;;;;;;;19.40;100.00;99642.69;5058062;28;20230;-75
2023/07/15 01:06:54;;;;;;;3.23;3.03;;;;;;;19.41;100.00;99643.53;5059504;28;20540;-75
2023/07/15 01:09:21;;;;;;;3.03;2.83;;;;;;;19.43;100.00;99642.53;5057798;28;20214;-73
2023/07/15 01:11:46;;;;;;;2.97;2.70;;;;;;;19.44;100.00;99638.13;5055849;28;20192;-75
2023/07/15 01:14:12;;;;;;;3.27;2.90;;;;;;;19.43;100.00;99649.53;5064182;28;20201;-74
2023/07/15 01:16:39;;;;;;;2.73;2.53;;;;;;;19.38;100.00;99641.94;5059395;28;20563;-74
2023/07/15 01:19:04;;;;;;;3.50;3.20;;;;;;;19.32;100.00;99644.88;5060822;28;20217;-74
2023/07/15 01:21:35;;;;;;;4.27;2.83;;;;;;;19.24;100.00;99647.94;5058774;28;20188;-74
2023/07/15 01:24:01;;;;;;;4.07;3.00;;;;;;;19.17;100.00;99643.97;5061951;28;20192;-76
2023/07/15 01:26:27;;;;;;;4.00;2.93;;;;;;;19.12;100.00;99648.63;5056671;28;20193;-73
2023/07/15 01:28:52;;;;;;;5.63;3.07;;;;;;;19.07;100.00;99648.88;5059050;28;20206;-75
2023/07/15 01:31:21;;;;;;;3.67;2.87;;;;;;;19.02;100.00;99653.50;5055732;28;20199;-74
2023/07/15 01:33:47;;;;;;;3.17;2.87;;;;;;;18.96;100.00;99644.22;5055878;28;20277;-75
2023/07/15 01:36:13;;;;;;;3.27;2.90;;;;;;;18.90;100.00;99639.28;5066901;28;20200;-75
2023/07/15 01:38:38;;;;;;;3.07;2.87;;;;;;;18.86;100.00;99643.81;5062533;28;20242;-75
2023/07/15 01:41:04;;;;;;;3.10;2.80;;;;;;;18.85;100.00;99636.88;5060904;28;20190;-74
2023/07/15 01:43:29;;;;;;;3.53;3.00;;;;;;;18.85;100.00;99647.38;5060418;28;20217;-74
2023/07/15 01:45:54;;;;;;;3.43;3.13;;;;;;;18.85;100.00;99646.53;5062813;28;20666;-75
2023/07/15 01:48:20;;;;;;;4.13;3.27;;;;;;;18.84;100.00;99642.22;5061149;28;20219;-74
2023/07/15 01:50:46;;;;;;;3.57;2.73;;;;;;;18.84;100.00;99642.22;5061345;28;20210;-75
2023/07/15 01:53:11;;;;;;;3.73;2.97;;;;;;;18.83;100.00;99643.16;5063451;28;20192;-75
2023/07/15 01:55:37;;;;;;;2.83;2.63;;;;;;;18.83;100.00;99640.53;5059657;28;20674;-75
2023/07/15 01:58:02;;;;;;;3.70;3.40;;;;;;;18.82;100.00;99638.84;5057352;28;20215;-74
2023/07/15 02:00:28;;;;;;;2.70;2.50;;;;;;;18.82;100.00;99642.31;5060949;28;20296;-74
2023/07/15 02:02:54;;;;;;;2.80;2.50;;;;;;;18.83;100.00;99640.53;5060669;28;20178;-73
2023/07/15 02:05:19;;;;;;;2.93;2.73;;;;;;;18.84;100.00;99639.59;5061848;28;20195;-74
2023/07/15 02:07:45;;;;;;;3.00;2.80;;;;;;;18.84;100.00;99637.81;5062412;28;20355;-75
2023/07/15 02:10:10;;;;;;;3.17;2.93;;;;;;;18.86;100.00;99638.59;5061179;28;20215;-73
2023/07/15 02:12:36;;;;;;;2.87;2.67;;;;;;;18.85;100.00;99631.66;5059887;28;20936;-75
2023/07/15 02:15:01;;;;;;;3.20;3.00;;;;;;;18.85;100.00;99626.41;5061048;28;20189;-74
2023/07/15 02:17:27;;;;;;;3.63;2.60;;;;;;;18.83;100.00;99625.63;5062112;28;20282;-73
2023/07/15 02:19:54;;;;;;;2.67;2.47;;;;;;;18.82;100.00;99626.59;5063295;28;20201;-74
2023/07/15 02:22:19;;;;;;;3.23;2.93;;;;;;;18.82;100.00;99623.09;5062399;28;20182;-75
2023/07/15 02:24:44;;;;;;;4.43;3.30;;;;;;;18.81;100.00;99630.13;5062209;28;20189;-74
2023/07/15 02:27:13;;;;;;;2.73;2.53;;;;;;;18.79;100.00;99626.75;5057846;28;20232;-74
2023/07/15 02:29:38;;;;;;;3.13;2.90;;;;;;;18.80;100.00;99624.97;5056041;28;20225;-76
2023/07/15 02:32:05;;;;;;;2.90;2.70;;;;;;;18.80;100.00;99620.59;5062841;28;20187;-74
2023/07/15 02:34:30;;;;;;;3.10;2.80;;;;;;;18.79;100.00;99621.50;5057051;28;20186;-73
2023/07/15 02:36:56;;;;;;;3.50;3.20;;;;;;;18.80;100.00;99622.34;5064182;28;20269;-74
2023/07/15 02:39:21;;;;;;;3.00;2.70;;;;;;;18.78;100.00;99621.56;5056562;28;20335;-76
2023/07/15 02:41:47;;;;;;;3.10;2.90;;;;;;;18.73;100.00;99620.06;5059583;28;20202;-74
2023/07/15 02:44:12;;;;;;;3.00;2.70;;;;;;;18.67;100.00;99620.38;5059605;28;20198;-74
2023/07/15 02:46:38;;;;;;;3.00;2.80;;;;;;;18.59;100.00;99618.16;5061535;28;20198;-75
2023/07/15 02:49:09;;;;;;;2.87;2.67;;;;;;;18.57;100.00;99619.19;5062106;28;20285;-74
2023/07/15 02:51:34;;;;;;;3.20;2.90;;;;;;;18.56;100.00;99615.72;5058515;28;20201;-74
2023/07/15 02:54:01;;;;;;;3.27;2.97;;;;;;;18.58;100.00;99618.25;5059922;28;20570;-75
2023/07/15 02:56:26;;;;;;;3.33;3.03;;;;;;;18.59;100.00;99607.69;5058105;28;20192;-75
2023/07/15 02:58:52;;;;;;;2.83;2.63;;;;;;;18.59;100.00;99609.47;5058860;28;20175;-74
2023/07/15 03:01:19;;;;;;;2.90;2.60;;;;;;;18.61;100.00;99607.59;5058586;28;20204;-75
2023/07/15 03:03:47;;;;;;;4.00;2.80;;;;;;;18.62;100.00;99609.28;5061209;28;20194;-74
2023/07/15 03:06:15;;;;;;;3.13;2.73;;;;;;;18.62;100.00;99619.78;5061389;28;20191;-72
2023/07/15 03:08:40;;;;;;;3.00;2.70;;;;;;;18.62;100.00;99608.47;5060927;28;20252;-75
2023/07/15 03:11:07;;;;;;;2.87;2.67;;;;;;;18.65;100.00;99610.91;5057731;28;21558;-75
2023/07/15 03:13:35;;;;;;;3.43;2.87;;;;;;;18.72;100.00;99604.41;5060984;28;20213;-74
2023/07/15 03:16:04;;;;;;;3.17;2.70;;;;;;;18.79;100.00;99604.91;5056694;28;20224;-74
2023/07/15 03:18:31;;;;;;;2.80;2.60;;;;;;;18.87;100.00;99594.88;5067730;28;20188;-76
2023/07/15 03:20:57;;;;;;;4.57;3.33;;;;;;;18.92;100.00;99600.69;5064007;28;20695;-76
2023/07/15 03:23:22;;;;;;;3.27;2.97;;;;;;;18.93;100.00;99594.53;5059770;28;20191;-73
2023/07/15 03:25:48;;;;;;;3.03;2.73;;;;;;;18.96;100.00;99581.28;5051641;28;20850;-74
2023/07/15 03:28:13;;;;;;;3.23;2.93;;;;;;;18.97;100.00;99575.09;5060053;28;21026;-74
2023/07/15 03:30:39;;;;;;;3.70;3.03;;;;;;;18.97;100.00;99577.72;5055766;28;20217;-73
2023/07/15 03:33:04;;;;;;;2.80;2.60;;;;;;;18.97;100.00;99580.34;5060626;28;20730;-74
2023/07/15 03:35:30;;;;;;;3.23;2.93;;;;;;;18.96;100.00;99575.22;5059038;28;20647;-75
2023/07/15 03:37:55;;;;;;;3.77;3.03;;;;;;;18.93;100.00;99581.41;5067689;28;20244;-75
2023/07/15 03:40:21;;;;;;;3.07;2.77;;;;;;;18.89;100.00;99574.66;5060432;28;20216;-74
2023/07/15 03:42:53;;;;;;;3.07;2.87;;;;;;;18.84;100.00;99571.44;5056348;28;20186;-75
2023/07/15 03:45:21;;;;;;;4.47;2.77;;;;;;;18.81;100.00;99569.84;5061327;28;21037;-74
2023/07/15 03:47:49;;;;;;;4.47;2.93;;;;;;;18.81;100.00;99569.84;5058212;28;20738;-73
2023/07/15 03:50:18;;;;;;;3.30;3.00;;;;;;;18.82;100.00;99568.91;5060764;28;20312;-73
2023/07/15 03:52:44;;;;;;;2.80;2.60;;;;;;;18.84;100.00;99566.19;5055877;28;20824;-76
2023/07/15 03:55:09;;;;;;;2.47;2.23;;;;;;;18.86;100.00;99562.56;5059148;28;20194;-73
2023/07/15 03:57:34;;;;;;;3.10;2.87;;;;;;;18.86;100.00;99570.41;5063043;28;20199;-74
2023/07/15 04:00:00;;;;;;;3.50;2.90;;;;;;;18.87;100.00;99572.13;5060817;28;20263;-74
2023/07/15 04:02:28;;;;;;;5.57;3.10;;;;;;;18.86;100.00;99570.41;5063461;28;20197;-72
2023/07/15 04:04:53;;;;;;;5.50;3.37;;;;;;;18.86;100.00;99578.28;5059637;28;20190;-75
2023/07/15 04:07:19;;;;;;;5.10;3.20;;;;;;;18.86;100.00;99578.28;5060740;28;20217;-74
2023/07/15 04:09:44;;;;;;;4.87;3.10;;;;;;;18.86;100.00;99578.28;5063133;28;20219;-74
2023/07/15 04:12:10;;;;;;;3.67;3.13;;;;;;;18.88;100.00;99579.06;5066435;28;20270;-72
2023/07/15 04:14:36;;;;;;;4.43;3.10;;;;;;;18.90;100.00;99581.59;5051735;28;20195;-76
2023/07/15 04:17:01;;;;;;;7.13;3.10;;;;;;;18.93;100.00;99577.97;5058407;28;20709;-72
2023/07/15 04:19:27;;;;;;;5.60;2.83;;;;;;;18.95;100.00;99587.44;5058613;28;20252;-73
2023/07/15 04:21:52;;;;;;;8.03;3.73;;;;;;;18.98;100.00;99583.84;5060038;28;20193;-72
2023/07/15 04:24:20;;;;;;;5.80;3.63;;;;;;;19.01;100.00;99596.75;5061076;28;20215;-75
2023/07/15 04:26:45;;;;;;;5.93;3.50;;;;;;;19.05;100.00;99598.28;5060309;28;20549;-74
2023/07/15 04:29:11;;;;;;;4.90;3.57;;;;;;;19.11;100.00;99603.19;5059135;28;20215;-71
2023/07/15 04:31:37;;;;;;;3.80;3.17;;;;;;;19.38;100.00;99601.72;5063193;28;20214;-71
2023/07/15 04:34:02;;;;;;;3.70;3.27;;;;;;;19.78;100.00;99596.81;5057861;28;20251;-72
2023/07/15 04:36:28;;;;;;;5.23;2.90;;;;;;;20.28;100.00;99593.91;5067902;28;20192;-72
2023/07/15 04:38:53;;;;;;;4.70;2.97;;;;;;;20.77;100.00;99604.06;5062147;28;20193;-73
2023/07/15 04:41:19;;;;;;;7.43;3.47;;;;;;;21.16;100.00;99605.13;5066410;28;20209;-73
2023/07/15 04:43:47;;;;;;;4.03;2.80;;;;;;;21.66;100.00;99604.56;5068908;28;20627;-74
2023/07/15 04:46:14;;;;;;;4.40;3.37;;;;;;;22.27;98.12;99604.00;5073368;28;20185;-71
2023/07/15 04:48:40;;;;;;;3.67;3.00;;;;;;;22.90;96.88;99603.22;5061843;28;20231;-72
2023/07/15 04:51:05;;;;;;;4.70;3.07;;;;;;;23.42;94.14;99610.00;5063219;28;20198;-71
2023/07/15 04:53:30;;;;;;;3.40;2.73;;;;;;;23.79;89.35;99597.66;5062838;28;20194;-73
2023/07/15 04:55:56;;;;;;;4.03;3.10;;;;;;;23.90;89.16;99597.69;5066088;28;20789;-73
2023/07/15 04:58:21;;;;;;;2.80;2.60;;;;;;;24.08;88.42;99602.56;5063114;28;20189;-73
2023/07/15 05:00:56;;;;;;;2.87;2.57;;;;;;;24.32;87.77;99602.47;5059428;28;20213;-73
2023/07/15 05:03:21;;;;;;;3.23;2.70;;;;;;;24.40;86.95;99615.91;5060909;28;20200;-74
2023/07/15 05:05:46;;;;;;;3.03;2.40;;;;;;;24.40;86.61;99607.97;5061096;28;20303;-73
2023/07/15 05:08:15;;;;;;;2.77;2.57;;;;;;;24.54;84.71;99611.34;5059768;28;20232;-73
2023/07/15 05:10:41;;;;;;;2.87;2.23;;;;;;;24.69;83.20;99609.31;5065684;28;20733;-74
2023/07/15 05:13:07;;;;;;;2.30;2.10;;;;;;;24.83;81.79;99598.50;5063104;28;20189;-74
2023/07/15 05:15:33;;;;;;;2.87;2.57;;;;;;;25.14;80.73;99601.31;5064008;28;20213;-72
2023/07/15 05:17:59;;;;;;;2.50;2.30;;;;;;;25.67;80.42;99592.59;5061579;28;20185;-71
2023/07/15 05:20:25;;;;;;;4.30;2.47;;;;;;;26.30;78.90;99585.59;5061829;28;20750;-72
2023/07/15 05:22:50;;;;;;;2.80;2.60;;;;;;;26.96;76.27;99592.25;5059356;28;20272;-73
2023/07/15 05:25:16;;;;;;;2.93;2.00;;;;;;;27.60;74.09;99590.09;5057978;28;20186;-74
2023/07/15 05:27:41;;;;;;;2.30;2.10;;;;;;;28.23;71.45;99587.88;5059332;28;20206;-72
2023/07/15 05:30:10;;;;;;;2.30;2.10;;;;;;;28.74;70.37;99572.41;5054737;28;20202;-73
2023/07/15 05:32:37;;;;;;;2.30;2.10;;;;;;;29.27;68.37;99567.28;5068359;28;20193;-74
2023/07/15 05:35:07;;;;;;;2.60;2.40;;;;;;;29.47;66.51;99562.66;5069973;28;20187;-73
2023/07/15 05:37:33;;;;;;;2.15;1.98;;;;;;;29.05;67.94;99561.41;5065922;28;20186;-73
2023/07/15 05:39:58;;;;;;;3.92;2.20;;;;;;;29.47;66.63;99549.31;5065282;28;20202;-72
2023/07/15 05:42:24;;;;;;;1.98;1.88;;;;;;;29.89;65.80;99556.59;5064713;28;20218;-74
2023/07/15 05:44:55;;;;;;;2.72;2.15;;;;;;;30.34;64.10;99567.19;5061306;28;20186;-73
2023/07/15 05:47:20;;;;;;;3.53;2.20;;;;;;;29.40;63.37;99569.56;5057749;28;20253;-76
2023/07/15 05:49:45;;;;;;;2.58;2.30;;;;;;;29.03;64.95;99572.22;5059506;28;20576;-75
2023/07/15 05:52:11;;;;;;;2.10;1.90;;;;;;;28.62;65.53;99566.41;5061202;28;20205;-72
2023/07/15 05:54:36;;;;;;;2.72;2.22;;;;;;;28.56;65.78;99559.84;5059969;28;20197;-74
2023/07/15 05:57:02;;;;;;;2.40;2.20;;;;;;;28.84;65.56;99557.19;5061503;28;20198;-73
2023/07/15 05:59:27;;;;;;;2.15;1.92;;;;;;;29.12;65.03;99550.97;5063343;28;20228;-74
2023/07/15 06:01:52;;;;;;;2.72;2.42;;;;;;;29.17;65.09;99554.03;5054778;28;20182;-73
2023/07/15 06:04:24;;;;;;;4.72;2.33;;;;;;;29.63;64.85;99551.25;5055172;28;20198;-73
2023/07/15 06:06:49;;;;;;;3.45;2.10;;;;;;;30.04;64.04;99548.88;5054748;28;20182;-75
2023/07/15 06:09:18;;;;;;;5.25;2.88;;;;;;;29.60;64.98;99543.56;5055303;28;20209;-75
2023/07/15 06:11:46;;;;;;;2.95;2.28;;;;;;;29.38;65.28;99550.22;5055800;28;20289;-75
2023/07/15 06:14:11;;;;;;;7.28;2.40;;;;;;;29.32;64.45;99548.97;5060483;28;20739;-75
2023/07/15 06:16:37;;;;;;;2.25;2.05;;;;;;;29.25;64.60;99545.28;5060641;28;20186;-76
2023/07/15 06:19:02;;;;;;;3.00;2.40;;;;;;;29.27;64.16;99537.97;5061366;28;20578;-77
2023/07/15 06:21:28;;;;;;;2.42;1.95;;;;;;;29.77;63.39;99537.34;5059716;28;20193;-75
2023/07/15 06:23:53;;;;;;;3.47;2.38;;;;;;;30.06;62.75;99530.06;5057230;28;20192;-77
2023/07/15 06:26:19;;;;;;;3.85;2.10;;;;;;;30.27;62.10;99540.31;5054524;28;20198;-75
2023/07/15 06:28:45;;;;;;;3.92;2.60;;;;;;;29.44;62.22;99531.78;5057089;28;20217;-77
2023/07/15 06:31:12;;;;;;;2.85;2.20;;;;;;;29.16;62.45;99534.53;5067474;28;20181;-77
2023/07/15 06:33:39;;;;;;;3.67;2.50;;;;;;;29.36;62.43;99529.06;5053981;28;20186;-77
2023/07/15 06:36:06;;;;;;;5.43;2.60;;;;;;;29.07;62.92;99523.94;5061302;28;20205;-76
2023/07/15 06:38:32;;;;;;;6.57;2.72;;;;;;;27.93;64.00;99521.44;5061711;28;20186;-76
2023/07/15 06:40:57;;;;;;;2.35;1.90;;;;;;;29.05;63.38;99526.78;5062105;28;20255;-75
2023/07/15 06:43:26;;;;;;;3.90;2.55;;;;;;;29.04;62.63;99533.91;5063034;28;20197;-77
2023/07/15 06:45:51;;;;;;;3.75;2.55;;;;;;;28.48;63.77;99529.63;5061556;28;20185;-76
2023/07/15 06:48:19;;;;;;;3.00;2.60;;;;;;;28.80;63.61;99534.53;5060434;28;20716;-76
2023/07/15 06:50:45;;;;;;;2.50;2.05;;;;;;;29.54;63.46;99539.69;5068881;28;20225;-76
2023/07/15 06:53:11;;;;;;;3.20;2.22;;;;;;;29.68;62.14;99548.13;5058189;28;20297;-77
2023/07/15 06:55:39;;;;;;;2.80;2.03;;;;;;;29.54;62.43;99550.34;5056751;28;20196;-75
2023/07/15 06:58:08;;;;;;;4.18;2.53;;;;;;;29.42;63.22;99555.09;5057718;28;20433;-77
2023/07/15 07:00:33;;;;;;;2.40;2.20;;;;;;;29.36;63.88;99555.72;5055450;28;20334;-76
2023/07/15 07:02:59;;;;;;;3.20;2.10;;;;;;;29.15;64.17;99556.84;5056284;28;20320;-75
2023/07/15 07:05:28;;;;;;;2.00;1.90;;;;;;;28.87;65.15;99553.41;5052331;28;20221;-75
2023/07/15 07:07:54;;;;;;;1.83;1.73;;;;;;;28.60;65.84;99552.41;5053811;28;20318;-75
2023/07/15 07:10:23;;;;;;;2.00;1.88;;;;;;;28.32;66.04;99543.59;5054277;28;21079;-75
2023/07/15 07:12:48;;;;;;;2.10;1.90;;;;;;;28.08;65.58;99547.56;5066546;28;20193;-73
2023/07/15 07:15:14;;;;;;;2.80;2.50;;;;;;;27.77;65.77;99553.09;5057855;28;20186;-74
2023/07/15 07:17:40;;;;;;;3.03;2.40;;;;;;;27.09;66.63;99554.81;5056396;28;20186;-75
2023/07/15 07:20:06;;;;;;;2.50;2.30;;;;;;;26.91;67.70;99560.81;5057824;28;20677;-73
2023/07/15 07:22:31;;;;;;;3.43;2.70;;;;;;;26.99;67.71;99565.44;5073679;28;20193;-73
2023/07/15 07:24:58;;;;;;;2.80;2.57;;;;;;;26.93;68.30;99563.31;5062973;28;20177;-74
2023/07/15 07:27:26;;;;;;;2.63;2.20;;;;;;;26.97;68.23;99559.44;5059762;28;20240;-75
2023/07/15 07:29:52;;;;;;;4.67;2.80;;;;;;;26.72;67.72;99552.78;5074540;28;20206;-75
2023/07/15 07:32:18;;;;;;;3.10;2.80;;;;;;;26.65;68.42;99554.28;5058683;28;20174;-76
2023/07/15 07:34:43;;;;;;;2.30;2.10;;;;;;;26.66;68.52;99553.31;5064203;28;20189;-74
2023/07/15 07:37:09;;;;;;;2.73;2.53;;;;;;;26.72;68.58;99560.75;5061909;28;20650;-72
2023/07/15 07:39:37;;;;;;;2.90;2.50;;;;;;;26.58;68.64;99556.63;5058299;28;20209;-72
2023/07/15 07:42:03;;;;;;;2.70;2.40;;;;;;;26.88;68.06;99566.41;5067085;28;20315;-75
2023/07/15 07:44:28;;;;;;;3.03;2.53;;;;;;;27.02;67.73;99578.41;5061769;28;20876;-74
2023/07/15 07:46:54;;;;;;;2.80;2.60;;;;;;;27.29;67.52;99574.28;5060695;28;20178;-73
2023/07/15 07:49:20;;;;;;;3.03;2.30;;;;;;;27.47;67.36;99565.59;5064185;28;20217;-76
2023/07/15 07:51:45;;;;;;;3.30;2.60;;;;;;;27.82;67.00;99574.78;5058130;28;20178;-76
2023/07/15 07:54:10;;;;;;;2.97;2.67;;;;;;;28.08;65.96;99571.50;5059302;28;20580;-73
2023/07/15 07:56:36;;;;;;;10.53;3.10;;;;;;;27.55;66.42;99579.03;5051373;28;20265;-75
2023/07/15 07:59:05;;;;;;;4.90;2.90;;;;;;;27.60;66.60;99587.44;5062915;28;20284;-74
2023/07/15 08:01:31;;;;;;;6.32;2.92;;;;;;;27.84;67.08;99586.94;5054989;28;20209;-73
2023/07/15 08:03:57;;;;;;;4.77;2.57;;;;;;;28.32;67.09;99580.84;5054898;28;20186;-75
2023/07/15 08:06:23;;;;;;;2.67;2.47;;;;;;;28.63;66.40;99588.56;5055826;28;20194;-73
2023/07/15 08:08:48;;;;;;;2.97;2.67;;;;;;;28.81;66.49;99591.28;5051565;28;20201;-74
2023/07/15 08:11:17;;;;;;;2.55;2.35;;;;;;;28.97;67.14;99587.94;5056956;28;20642;-75
2023/07/15 08:13:48;;;;;;;2.47;2.25;;;;;;;29.10;66.66;99591.09;5055100;28;20194;-74
2023/07/15 08:16:34;;;;;;;2.63;2.30;;;;;;;29.02;66.28;99588.34;5050821;28;20194;-75
2023/07/15 08:19:04;;;;;;;4.63;2.95;;;;;;;28.62;66.50;99593.03;5045620;28;20198;-74
2023/07/15 08:21:30;;;;;;;3.75;2.80;;;;;;;28.68;66.20;99603.09;5050487;28;20197;-75
2023/07/15 08:23:55;;;;;;;3.58;2.55;;;;;;;29.26;65.42;99606.41;5059519;28;20599;-72
2023/07/15 08:26:29;;;;;;;3.63;2.53;;;;;;;29.79;65.57;99591.38;5065681;28;20221;-74
2023/07/15 08:28:56;;;;;;;2.67;2.47;;;;;;;30.05;65.28;99592.41;5054760;28;20205;-72
2023/07/15 08:31:22;;;;;;;2.60;2.40;;;;;;;30.18;64.35;99582.13;5055337;28;20209;-73
2023/07/15 08:33:47;;;;;;;2.60;2.40;;;;;;;30.86;63.54;99587.59;5054678;28;20547;-73
2023/07/15 08:36:13;;;;;;;2.95;2.25;;;;;;;30.39;63.70;99594.25;5066381;28;20194;-73
2023/07/15 08:38:38;;;;;;;5.57;2.70;;;;;;;30.37;63.27;99596.25;5065103;28;20178;-73
2023/07/15 08:41:06;;;;;;;3.78;2.78;;;;;;;30.46;63.72;99579.25;5059595;28;20543;-74
2023/07/15 08:43:31;;;;;;;4.05;2.85;;;;;;;30.05;64.51;99581.72;5058790;28;20208;-74
2023/07/15 08:46:00;;;;;;;3.42;2.70;;;;;;;29.94;65.23;99585.47;5059601;28;20178;-75
2023/07/15 08:48:27;;;;;;;4.10;3.22;;;;;;;29.85;65.36;99581.09;5046864;28;20210;-74
2023/07/15 08:50:56;;;;;;;4.88;2.90;;;;;;;29.64;65.33;99590.25;5054815;28;20220;-74
2023/07/15 08:53:25;;;;;;;3.25;2.65;;;;;;;29.69;65.45;99582.63;5057608;28;20238;-73
2023/07/15 08:55:57;;;;;;;5.32;3.05;;;;;;;29.63;64.59;99588.56;5055823;28;20300;-75
2023/07/15 08:58:26;;;;;;;3.40;2.75;;;;;;;29.54;65.18;99578.84;5052991;28;20711;-73
2023/07/15 09:00:51;;;;;;;2.88;2.60;;;;;;;29.70;64.98;99573.66;5055139;28;20222;-74
2023/07/15 09:03:19;;;;;;;3.33;2.88;;;;;;;29.86;65.13;99572.09;5054884;28;20193;-74
2023/07/15 09:05:45;;;;;;;2.88;2.67;;;;;;;29.94;65.58;99566.78;5060910;28;20285;-74
2023/07/15 09:08:12;;;;;;;6.15;2.75;;;;;;;30.14;65.30;99579.94;5060483;28;20206;-74
2023/07/15 09:10:53;;;;;;;3.55;2.70;;;;;;;30.05;66.13;99601.22;5059729;28;20576;-73
2023/07/15 09:13:26;;;;;;;4.47;3.25;;;;;;;29.78;66.41;99615.53;5054956;28;20181;-73
2023/07/15 09:15:55;;;;;;;5.43;3.47;;;;;;;29.66;67.36;99628.28;5055082;28;20182;-74
2023/07/15 09:18:23;;;;;;;3.63;3.28;;;;;;;29.03;67.96;99627.31;5058947;28;22345;-74
2023/07/15 09:20:50;;;;;;;3.53;3.22;;;;;;;28.94;68.66;99630.88;5057264;28;20207;-75
2023/07/15 09:23:16;;;;;;;3.80;2.80;;;;;;;28.76;69.71;99629.00;5055375;28;20196;-74
2023/07/15 09:25:54;;;;;;;2.73;2.53;;;;;;;28.69;69.38;99626.06;5055713;28;20192;-74
2023/07/15 09:28:23;;;;;;;3.37;2.90;;;;;;;28.53;69.88;99620.53;5059450;28;20470;-74
2023/07/15 09:30:48;;;;;;;3.17;2.87;;;;;;;28.49;69.97;99635.97;5058949;28;20289;-74
2023/07/15 09:33:40;;;;;;;4.43;2.70;;;;;;;28.62;70.48;99664.88;5061177;28;20264;-74
2023/07/15 09:36:06;;;;;;;3.53;2.90;;;;;;;28.68;71.14;99677.63;5064769;28;20206;-74
2023/07/15 09:38:35;;;;;;;2.73;2.53;;;;;;;28.90;70.88;99692.41;5071669;28;20272;-74
2023/07/15 09:41:01;;;;;;;2.90;2.70;;;;;;;29.25;70.66;99689.97;5063375;28;20275;-75
2023/07/15 09:43:49;;;;;;;3.20;2.90;;;;;;;29.46;69.80;99692.41;5062776;28;20179;-74
2023/07/15 09:46:19;;;;;;;5.17;3.30;;;;;;;29.79;69.56;99691.88;5059713;28;20186;-74
2023/07/15 09:48:47;;;;;;;3.20;2.95;;;;;;;30.11;69.14;99693.16;5059362;28;20409;-74
2023/07/15 09:51:15;;;;;;;4.57;2.90;;;;;;;30.49;69.22;99688.41;5058467;28;20186;-74
2023/07/15 09:53:55;;;;;;;3.03;2.72;;;;;;;30.90;68.23;99687.81;5061973;28;20178;-74
2023/07/15 09:56:29;;;;;;;3.63;2.75;;;;;;;31.15;67.17;99677.22;5057474;28;20297;-73
2023/07/15 09:59:06;;;;;;;3.58;2.90;;;;;;;30.88;65.64;99663.06;5058984;28;21423;-73
2023/07/15 10:01:38;;;;;;;4.47;3.58;;;;;;;30.85;65.26;99677.59;5057763;28;20197;-74
2023/07/15 10:04:21;;;;;;;3.25;2.80;;;;;;;30.82;64.82;99664.56;5061264;28;20201;-73
2023/07/15 10:06:54;;;;;;;4.18;3.03;;;;;;;31.15;65.16;99656.69;5055656;28;20236;-74
2023/07/15 10:09:22;;;;;;;2.95;2.75;;;;;;;31.41;64.96;99669.09;5063526;28;20210;-72
2023/07/15 10:11:51;;;;;;;3.13;2.70;;;;;;;31.79;65.25;99671.31;5062696;28;20243;-74
2023/07/15 10:14:18;;;;;;;3.25;3.05;;;;;;;32.19;64.10;99677.63;5056834;28;20243;-75
2023/07/15 10:16:43;;;;;;;3.33;2.85;;;;;;;32.23;63.46;99665.59;5059620;28;20186;-74
2023/07/15 10:19:40;;;;;;;4.50;3.00;;;;;;;32.23;62.86;99678.13;5054572;28;20806;-75
2023/07/15 10:22:10;;;;;;;3.35;3.05;;;;;;;32.43;63.15;99670.59;5057094;28;20197;-75
2023/07/15 10:24:39;;;;;;;2.65;2.45;;;;;;;32.21;61.77;99678.31;5056729;28;20849;-76
2023/07/15 10:27:11;;;;;;;3.28;2.97;;;;;;;31.91;64.11;99675.31;5058537;28;20318;-75
2023/07/15 10:29:42;;;;;;;3.60;3.08;;;;;;;31.95;63.89;99666.97;5058087;28;20241;-75
2023/07/15 10:32:12;;;;;;;3.10;2.90;;;;;;;32.33;63.36;99654.72;5051561;28;20607;-75
2023/07/15 10:34:51;;;;;;;3.05;2.85;;;;;;;32.64;62.95;99653.97;5051656;28;20182;-74
2023/07/15 10:37:19;;;;;;;3.10;2.60;;;;;;;32.86;61.92;99658.75;5057011;28;20188;-74
2023/07/15 10:39:46;;;;;;;3.55;2.80;;;;;;;32.89;61.76;99642.34;5052155;28;20209;-74
2023/07/15 10:42:17;;;;;;;3.72;2.65;;;;;;;32.91;62.76;99630.41;5053145;28;20445;-75
2023/07/15 10:44:51;;;;;;;3.92;2.92;;;;;;;32.88;63.10;99629.94;5058008;28;20190;-74
2023/07/15 10:47:17;;;;;;;3.47;3.00;;;;;;;32.62;63.75;99626.50;5051351;28;20631;-75
2023/07/15 10:49:46;;;;;;;3.58;3.10;;;;;;;32.56;63.28;99621.84;5055859;28;20205;-73
2023/07/15 10:52:18;;;;;;;3.97;2.72;;;;;;;32.55;63.56;99620.16;5053964;28;20191;-73
2023/07/15 10:54:44;;;;;;;3.22;2.92;;;;;;;32.51;63.94;99617.00;5051439;28;20185;-73
2023/07/15 10:57:14;;;;;;;3.00;2.80;;;;;;;32.55;64.17;99614.81;5053551;28;20239;-74
2023/07/15 10:59:42;;;;;;;3.40;3.10;;;;;;;32.60;63.99;99595.53;5050778;28;20223;-74
2023/07/15 11:02:08;;;;;;;3.45;3.15;;;;;;;32.67;64.04;99596.50;5052823;28;20855;-74
2023/07/15 11:04:37;;;;;;;3.17;2.90;;;;;;;32.67;64.32;99586.63;5052429;28;20196;-74
2023/07/15 11:07:11;;;;;;;3.33;3.03;;;;;;;32.62;64.84;99586.31;5054928;28;20185;-73
2023/07/15 11:09:38;;;;;;;3.30;2.80;;;;;;;32.66;64.92;99589.47;5061911;28;20211;-74
2023/07/15 11:12:07;;;;;;;3.45;3.15;;;;;;;32.75;65.62;99592.97;5057975;28;20189;-73
2023/07/15 11:14:32;;;;;;;2.90;2.70;;;;;;;32.81;65.27;99589.63;5058112;28;20182;-74
2023/07/15 11:16:59;;;;;;;3.22;3.00;;;;;;;32.82;64.30;99578.72;5051764;28;20224;-74
2023/07/15 11:19:29;;;;;;;3.53;3.22;;;;;;;32.71;63.13;99573.72;5054578;28;20954;-73
2023/07/15 11:21:56;;;;;;;3.40;3.10;;;;;;;32.65;63.62;99574.41;5056743;28;20692;-74
2023/07/15 11:24:23;;;;;;;4.68;3.30;;;;;;;32.69;63.54;99570.38;5053219;28;20227;-73
2023/07/15 11:26:49;;;;;;;3.17;2.97;;;;;;;32.81;63.49;99571.69;5057295;28;20186;-75
2023/07/15 11:29:20;;;;;;;3.22;2.95;;;;;;;33.02;64.29;99567.53;5061739;28;20217;-73
2023/07/15 11:31:51;;;;;;;3.80;3.15;;;;;;;33.16;63.67;99565.09;5053738;28;22019;-73
2023/07/15 11:34:24;;;;;;;5.25;3.30;;;;;;;32.88;62.10;99552.22;5073155;28;20225;-73